Time;durP1;ratioP1;P1;durP2;ratioP2;P2;SDS_P1;SDS_P2;PMS_P1;PMS_P2;Temp;Humidity;BMP_temperature;BMP_pressure;BME280_temperature;BME280_humidity;BME280_pressure;Samples;Min_cycle;Max_cycle;Signal;HPM_P1;HPM_P2
2022/06/05 00:02:13;;;;;;;13.87;10.87;;;;;;;20.00;100.00;98796.41;5034915;28;20162;-87
2022/06/05 00:04:53;;;;;;;14.40;11.07;;;;;;;21.06;100.00;98985.47;5034565;28;20245;-89
2022/06/05 00:07:42;;;;;;;14.77;10.20;;;;;;;23.09;100.00;99340.13;5016794;28;20205;-90
2022/06/05 00:10:37;;;;;;;14.80;10.03;;;;;;;22.87;100.00;99306.72;5016798;28;20261;-87
2022/06/05 00:13:23;;;;;;;13.30;10.50;;;;;;;22.09;100.00;99185.91;4974208;28;20199;-88
2022/06/05 00:15:49;;;;;;;15.37;10.93;;;;;;;21.78;100.00;99143.97;4958338;28;20747;-89
2022/06/05 00:18:14;;;;;;;18.97;10.97;;;;;;;21.98;100.00;99173.09;4957285;28;20191;-88
2022/06/05 00:20:44;;;;;;;15.07;11.00;;;;;;;20.45;100.00;98931.69;4973651;28;20230;-88
2022/06/05 00:23:10;;;;;;;13.63;11.47;;;;;;;22.60;100.00;99291.38;4957902;28;20259;-88
2022/06/05 00:26:05;;;;;;;15.73;11.23;;;;;;;21.89;100.00;99187.75;4973725;28;20640;-88
2022/06/05 00:28:54;;;;;;;15.50;11.80;;;;;;;21.80;100.00;99167.16;4919751;29;20244;-87
2022/06/05 00:31:38;;;;;;;18.40;12.63;;;;;;;22.71;100.00;99348.97;4934554;29;20201;-89
2022/06/05 00:34:04;;;;;;;16.97;12.40;;;;;;;21.37;100.00;99151.03;4935181;29;20193;-89
2022/06/05 00:36:51;;;;;;;14.17;11.13;;;;;;;22.50;100.00;99353.34;4937929;29;20229;-88
2022/06/05 00:39:24;;;;;;;14.50;11.43;;;;;;;21.81;100.00;99248.75;4937790;29;20199;-89
2022/06/05 00:42:00;;;;;;;16.37;11.30;;;;;;;22.08;100.00;99300.25;4935264;29;20199;-89
2022/06/05 00:44:34;;;;;;;12.93;10.53;;;;;;;22.03;100.00;99289.94;4935606;29;20224;-88
2022/06/05 00:47:00;;;;;;;15.43;11.10;;;;;;;21.15;100.00;99139.94;4935449;29;20263;-89
2022/06/05 00:49:40;;;;;;;17.10;12.07;;;;;;;21.21;100.00;99149.31;4925804;29;20203;-87
2022/06/05 00:52:08;;;;;;;41.10;30.03;;;;;;;22.00;100.00;99265.91;4955519;29;20189;-88
2022/06/05 00:54:34;;;;;;;319.67;239.50;;;;;;;21.70;100.00;99205.84;4954728;29;20177;-88
2022/06/05 00:56:59;;;;;;;356.60;271.03;;;;;;;20.83;100.00;99034.44;4939306;28;20183;-88
2022/06/05 00:59:27;;;;;;;276.37;195.07;;;;;;;21.04;100.00;99095.31;4942784;29;20247;-89
2022/06/05 01:01:53;;;;;;;65.40;47.10;;;;;;;20.36;100.00;98998.56;4944076;29;20173;-89
2022/06/05 01:04:19;;;;;;;101.27;69.10;;;;;;;22.28;100.00;99325.06;4960678;28;20187;-89
2022/06/05 01:06:45;;;;;;;141.60;105.73;;;;;;;18.63;100.00;98773.44;4982341;28;20218;-89
2022/06/05 01:09:11;;;;;;;45.50;34.67;;;;;;;18.06;100.00;98749.34;4984293;28;20195;-88
2022/06/05 01:12:06;;;;;;;20.67;15.90;;;;;;;21.22;100.00;99334.75;5011713;28;20159;-88
2022/06/05 01:15:03;;;;;;;16.67;12.90;;;;;;;21.31;100.00;99327.03;4915820;29;20201;-86
2022/06/05 01:17:56;;;;;;;19.37;14.80;;;;;;;20.44;100.00;99165.69;4911199;29;20186;-87
2022/06/05 01:20:47;;;;;;;15.93;12.30;;;;;;;21.00;100.00;99253.19;4848739;29;20225;-89
2022/06/05 01:23:38;;;;;;;15.77;11.97;;;;;;;20.55;100.00;99176.84;4844353;29;20173;-87
2022/06/05 01:26:12;;;;;;;15.00;11.90;;;;;;;19.62;100.00;99016.53;4844337;29;20283;-88
2022/06/05 01:28:51;;;;;;;16.23;12.43;;;;;;;18.61;100.00;98872.56;4844466;29;20233;-89
2022/06/05 01:31:27;;;;;;;15.70;12.33;;;;;;;20.51;100.00;99164.84;4828753;29;20291;-88
2022/06/05 01:34:29;;;;;;;18.13;12.27;;;;;;;21.46;100.00;99336.44;4844993;29;20185;-88
2022/06/05 01:37:41;;;;;;;18.53;11.33;;;;;;;21.35;100.00;99344.16;4844102;29;20271;-88
2022/06/05 01:40:06;;;;;;;16.87;11.97;;;;;;;21.33;100.00;99345.03;4772381;30;20195;-88
2022/06/05 01:42:38;;;;;;;17.93;12.10;;;;;;;20.71;100.00;99265.19;4772199;30;20222;-87
2022/06/05 01:45:16;;;;;;;16.63;12.60;;;;;;;21.31;100.00;99350.19;4787244;30;20319;-88
2022/06/05 01:47:47;;;;;;;17.17;12.70;;;;;;;21.04;100.00;99293.53;4789307;30;20353;-88
2022/06/05 01:50:22;;;;;;;21.23;12.70;;;;;;;21.42;100.00;99351.06;4801279;29;20234;-89
2022/06/05 01:52:59;;;;;;;18.93;12.77;;;;;;;21.25;100.00;99342.47;4844040;29;20187;-87
2022/06/05 01:55:49;;;;;;;16.87;12.67;;;;;;;21.32;100.00;99341.59;4843630;29;20639;-88
2022/06/05 01:58:19;;;;;;;18.43;12.27;;;;;;;20.00;100.00;99114.19;4920179;29;20313;-88
2022/06/05 02:00:51;;;;;;;16.83;12.73;;;;;;;19.97;100.00;99129.63;4937948;29;20232;-88
2022/06/05 02:03:20;;;;;;;17.53;13.40;;;;;;;19.67;100.00;99089.31;4921275;29;20201;-88
2022/06/05 02:06:00;;;;;;;17.00;12.47;;;;;;;19.66;100.00;99081.63;4938726;29;20170;-88
2022/06/05 02:08:32;;;;;;;17.33;12.37;;;;;;;20.67;100.00;99240.31;4946263;29;20200;-88
2022/06/05 02:11:09;;;;;;;18.93;13.57;;;;;;;19.69;100.00;99056.81;4940685;29;20200;-88
2022/06/05 02:13:35;;;;;;;17.00;12.73;;;;;;;20.80;100.00;99229.16;4939382;29;20266;-87
2022/06/05 02:16:00;;;;;;;17.00;12.90;;;;;;;19.73;100.00;99052.50;4949475;28;20643;-88
2022/06/05 02:18:27;;;;;;;20.60;13.20;;;;;;;20.32;100.00;99187.13;5017694;28;20167;-87
2022/06/05 02:20:53;;;;;;;19.50;13.77;;;;;;;21.02;100.00;99279.78;4999003;28;20240;-89
2022/06/05 02:23:22;;;;;;;18.97;13.20;;;;;;;20.50;100.00;99205.16;4999859;28;20676;-88
2022/06/05 02:25:48;;;;;;;20.60;13.57;;;;;;;19.08;100.00;98937.69;5017491;28;20159;-88
2022/06/05 02:28:17;;;;;;;17.33;12.83;;;;;;;21.28;100.00;99345.03;5017292;28;20186;-89
2022/06/05 02:30:58;;;;;;;18.47;13.70;;;;;;;19.09;100.00;98989.88;5016983;28;20655;-88
2022/06/05 02:33:50;;;;;;;17.23;12.93;;;;;;;20.39;100.00;99206.84;4999662;28;20178;-86
2022/06/05 02:36:38;;;;;;;17.80;13.60;;;;;;;20.92;100.00;99275.50;5000131;28;20183;-87
2022/06/05 02:39:23;;;;;;;20.53;13.73;;;;;;;21.20;100.00;99330.44;5026457;28;20598;-87
2022/06/05 02:42:04;;;;;;;17.83;13.33;;;;;;;21.24;100.00;99320.13;5036181;28;20689;-89
2022/06/05 02:44:40;;;;;;;17.03;12.90;;;;;;;20.94;100.00;99290.06;5018903;28;20218;-88
2022/06/05 02:47:14;;;;;;;17.20;13.00;;;;;;;20.99;100.00;99333.81;5036014;28;20182;-88
2022/06/05 02:49:47;;;;;;;21.43;14.57;;;;;;;20.11;100.00;99279.56;5018530;28;20177;-88
2022/06/05 02:52:14;;;;;;;21.40;14.60;;;;;;;20.00;100.00;99243.56;5018838;28;20209;-88
2022/06/05 02:54:45;;;;;;;20.10;14.30;;;;;;;20.71;100.00;99348.34;5018706;28;20184;-88
2022/06/05 02:57:13;;;;;;;20.53;14.97;;;;;;;19.29;100.00;99116.53;5018330;28;20568;-87
2022/06/05 02:59:39;;;;;;;21.23;15.17;;;;;;;19.59;100.00;99151.78;5018218;28;20273;-88
2022/06/05 03:04:48;;;;;;;18.60;14.13;;;;;;;17.53;100.00;98786.59;5036242;28;20176;-86
2022/06/05 03:07:13;;;;;;;21.07;14.87;;;;;;;19.41;100.00;99138.03;5035424;28;20725;-87
2022/06/05 03:09:39;;;;;;;22.60;15.07;;;;;;;16.60;100.00;98669.16;5036065;28;20721;-88
2022/06/05 03:12:04;;;;;;;19.80;14.03;;;;;;;18.89;100.00;99028.28;5035867;28;20166;-88
2022/06/05 03:14:30;;;;;;;20.57;13.57;;;;;;;18.42;100.00;98909.22;5019039;28;20490;-89
2022/06/05 03:16:55;;;;;;;17.60;14.27;;;;;;;17.74;100.00;98756.06;5037132;28;20174;-88
2022/06/05 03:19:22;;;;;;;21.60;14.90;;;;;;;20.34;100.00;99218.84;5068186;23;20234;-87
2022/06/05 03:21:47;;;;;;;21.70;14.03;;;;;;;18.85;100.00;99001.75;5028728;28;20185;-88
2022/06/05 03:24:14;;;;;;;19.27;13.47;;;;;;;20.69;100.00;99350.06;5039843;28;20198;-88
2022/06/05 03:26:39;;;;;;;16.33;13.03;;;;;;;20.30;100.00;99313.97;5017454;28;20201;-88
2022/06/05 03:29:07;;;;;;;18.10;13.17;;;;;;;20.46;100.00;99334.56;5034663;28;20170;-88
2022/06/05 03:31:34;;;;;;;17.47;12.63;;;;;;;16.65;100.00;98665.78;5034994;28;20768;-88
2022/06/05 03:33:59;;;;;;;19.17;12.90;;;;;;;20.02;100.00;99248.72;5034296;28;20173;-87
2022/06/05 03:36:25;;;;;;;18.73;12.73;;;;;;;19.03;100.00;99016.38;5035783;28;20162;-88
2022/06/05 03:38:51;;;;;;;19.97;13.13;;;;;;;18.82;100.00;98929.03;5026720;28;20173;-85
2022/06/05 03:41:17;;;;;;;17.23;13.47;;;;;;;20.74;100.00;99244.63;5044862;28;20166;-86
2022/06/05 03:43:43;;;;;;;15.40;13.03;;;;;;;19.38;100.00;99052.44;5035624;28;20378;-86
2022/06/05 03:46:11;;;;;;;17.67;13.07;;;;;;;21.14;100.00;99336.47;5017676;28;20178;-88
2022/06/05 03:48:38;;;;;;;18.33;13.77;;;;;;;20.31;100.00;99202.53;5034582;28;20193;-86
2022/06/05 03:51:08;;;;;;;17.20;13.17;;;;;;;21.11;100.00;99336.44;5015384;28;20261;-88
2022/06/05 03:53:34;;;;;;;23.17;14.07;;;;;;;21.06;100.00;99291.81;5039601;28;20529;-88
2022/06/05 03:55:59;;;;;;;19.97;13.17;;;;;;;19.69;100.00;98997.72;5042917;28;20172;-87
2022/06/05 03:58:25;;;;;;;18.10;13.63;;;;;;;20.10;100.00;99069.69;5020365;28;20212;-88
2022/06/05 04:00:53;;;;;;;18.67;13.10;;;;;;;19.59;100.00;99002.81;5017450;28;20257;-88
2022/06/05 04:03:19;;;;;;;17.53;13.50;;;;;;;19.78;100.00;99117.59;5016900;28;20638;-87
2022/06/05 04:05:45;;;;;;;19.37;13.67;;;;;;;19.07;100.00;99007.81;5016682;28;20181;-89
2022/06/05 04:08:14;;;;;;;19.47;13.93;;;;;;;18.88;100.00;98913.69;5016375;28;20626;-88
2022/06/05 04:10:40;;;;;;;19.10;13.60;;;;;;;19.84;100.00;99102.19;5016336;28;20181;-87
2022/06/05 04:13:05;;;;;;;19.53;14.10;;;;;;;21.03;100.00;99320.13;5034229;28;20170;-88
2022/06/05 04:15:31;;;;;;;23.60;14.97;;;;;;;21.01;100.00;99306.38;5035546;28;20216;-89
2022/06/05 04:17:56;;;;;;;20.83;14.43;;;;;;;18.06;100.00;98751.06;5018426;28;20225;-88
2022/06/05 04:20:22;;;;;;;18.13;14.30;;;;;;;19.64;100.00;99012.25;5020399;28;20222;-87
2022/06/05 04:22:47;;;;;;;21.00;14.47;;;;;;;17.96;100.00;98732.25;5002171;28;20183;-88
2022/06/05 04:25:16;;;;;;;19.10;14.73;;;;;;;19.76;100.00;99008.84;5016897;28;20185;-88
2022/06/05 04:27:42;;;;;;;19.07;14.23;;;;;;;18.21;100.00;98731.44;5017861;28;20210;-88
2022/06/05 04:30:08;;;;;;;24.00;15.23;;;;;;;20.94;100.00;99186.25;5019083;28;20608;-88
2022/06/05 04:32:33;;;;;;;19.30;15.23;;;;;;;20.68;100.00;99114.25;5016886;28;20181;-89
2022/06/05 04:34:59;;;;;;;18.13;14.43;;;;;;;18.14;100.00;98670.81;5026887;28;20646;-89
2022/06/05 04:37:24;;;;;;;23.17;15.20;;;;;;;20.17;100.00;98994.28;5023035;28;20170;-88
2022/06/05 04:39:50;;;;;;;20.30;15.73;;;;;;;19.86;100.00;98956.63;5023187;28;20167;-87
2022/06/05 04:42:15;;;;;;;24.40;15.47;;;;;;;20.17;100.00;98958.28;5023041;28;20249;-89
2022/06/05 04:44:41;;;;;;;21.50;15.23;;;;;;;20.60;100.00;99093.66;5026899;28;20171;-87
2022/06/05 04:47:06;;;;;;;19.33;15.53;;;;;;;20.86;100.00;99065.31;5032071;28;20198;-89
2022/06/05 04:49:35;;;;;;;20.70;14.27;;;;;;;20.20;100.00;98899.16;5035052;28;20166;-89
2022/06/05 04:52:01;;;;;;;21.33;15.53;;;;;;;21.60;100.00;99136.31;5006701;28;20177;-88
2022/06/05 04:54:27;;;;;;;20.53;15.13;;;;;;;21.75;100.00;99211.81;5030090;28;20171;-89
2022/06/05 04:56:56;;;;;;;20.57;14.53;;;;;;;22.17;100.00;99326.84;5034044;28;20194;-88
2022/06/05 04:59:21;;;;;;;21.70;14.30;;;;;;;18.36;100.00;98675.97;5032388;28;20674;-87
2022/06/05 05:01:47;;;;;;;21.00;14.20;;;;;;;19.79;100.00;98859.84;5032028;28;20207;-88
2022/06/05 05:04:14;;;;;;;19.87;13.70;;;;;;;20.24;100.00;98913.75;5033215;28;20435;-90
2022/06/05 05:06:42;;;;;;;18.90;13.40;;;;;;;18.89;100.00;98679.44;5016090;28;20179;-90
2022/06/05 05:09:08;;;;;;;18.87;12.53;;;;;;;19.89;100.00;98841.84;5016461;28;20624;-89
2022/06/05 05:11:34;;;;;;;18.57;13.57;;;;;;;19.09;100.00;98708.44;5030286;28;20163;-89
2022/06/05 05:14:00;;;;;;;18.67;13.47;;;;;;;20.58;100.00;98955.63;5028335;28;20230;-88
2022/06/05 05:16:27;;;;;;;18.87;12.93;;;;;;;19.99;100.00;98828.13;5031674;28;20159;-88
2022/06/05 05:18:54;;;;;;;18.10;13.07;;;;;;;21.54;100.00;99041.88;5037005;28;20218;-87
2022/06/05 05:21:22;;;;;;;15.57;12.40;;;;;;;21.69;100.00;99085.59;5050353;28;20167;-88
2022/06/05 05:23:49;;;;;;;15.77;12.07;;;;;;;21.45;100.00;99041.09;5049494;28;20150;-89
2022/06/05 05:26:20;;;;;;;14.00;11.70;;;;;;;19.96;99.63;98786.16;5050600;28;20165;-88
2022/06/05 05:28:47;;;;;;;15.20;11.60;;;;;;;21.22;97.81;98930.47;5050259;28;20182;-89
2022/06/05 05:31:17;;;;;;;15.53;11.67;;;;;;;21.16;95.53;98859.28;5034361;28;20189;-89
2022/06/05 05:33:43;;;;;;;17.00;11.90;;;;;;;21.19;93.75;98858.41;5034407;28;20200;-88
2022/06/05 05:36:10;;;;;;;17.27;11.70;;;;;;;22.65;92.63;99078.03;5052382;28;20162;-88
2022/06/05 05:38:36;;;;;;;16.67;11.80;;;;;;;20.53;94.92;98783.34;5052448;28;20237;-89
2022/06/05 05:43:48;;;;;;;13.87;11.43;;;;;;;20.02;94.79;98649.97;5050640;28;20172;-88
2022/06/05 05:46:16;;;;;;;16.13;11.93;;;;;;;22.30;92.10;99047.34;5051840;28;20177;-89
2022/06/05 05:48:42;;;;;;;14.20;11.63;;;;;;;20.18;91.05;98702.97;5051654;28;20245;-88
2022/06/05 05:51:15;;;;;;;19.73;11.90;;;;;;;20.14;88.82;98644.72;5051732;28;20181;-89
2022/06/05 05:53:42;;;;;;;14.67;11.80;;;;;;;21.06;86.96;98735.78;5033921;28;20197;-88
2022/06/05 05:56:12;;;;;;;13.43;11.27;;;;;;;21.51;86.72;98820.38;5035189;28;20162;-89
2022/06/05 05:58:40;;;;;;;13.70;11.33;;;;;;;23.69;86.56;99199.16;5053161;28;20158;-89
2022/06/05 06:01:10;;;;;;;14.40;11.87;;;;;;;21.88;85.07;98893.06;5038694;28;20166;-85
2022/06/05 06:03:36;;;;;;;14.77;11.20;;;;;;;20.98;81.72;98658.66;5056005;28;20150;-89
2022/06/05 06:06:03;;;;;;;15.00;10.90;;;;;;;21.81;81.98;98792.59;5053560;28;20158;-87
2022/06/05 06:08:29;;;;;;;14.00;11.67;;;;;;;21.49;84.76;98806.66;5052970;28;20232;-89
2022/06/05 06:10:55;;;;;;;15.83;11.87;;;;;;;21.47;83.01;98707.09;5052047;28;20150;-88
2022/06/05 06:13:22;;;;;;;14.47;11.90;;;;;;;23.90;82.90;99101.47;5052659;28;20145;-87
2022/06/05 06:15:49;;;;;;;18.27;13.13;;;;;;;24.43;82.64;99151.56;5053189;28;20156;-87
2022/06/05 06:18:15;;;;;;;17.47;12.80;;;;;;;22.19;80.22;98733.72;5052957;28;20177;-87
2022/06/05 06:20:41;;;;;;;14.70;12.50;;;;;;;24.29;81.85;99105.22;5052309;28;20240;-89
2022/06/05 06:23:07;;;;;;;17.63;13.10;;;;;;;21.98;84.43;98778.66;5052535;28;20162;-89
2022/06/05 06:25:32;;;;;;;18.43;13.43;;;;;;;22.78;84.78;98895.47;5052819;28;20225;-88
2022/06/05 06:27:58;;;;;;;16.70;12.90;;;;;;;22.18;84.49;98801.63;5052573;28;20194;-86
2022/06/05 06:30:24;;;;;;;15.27;12.37;;;;;;;22.20;84.12;98823.94;5051911;28;20177;-88
2022/06/05 06:32:49;;;;;;;16.73;11.90;;;;;;;22.32;83.16;98817.78;5034040;28;20200;-89
2022/06/05 06:35:15;;;;;;;14.93;12.03;;;;;;;25.62;80.93;99310.19;5052013;28;20181;-88
2022/06/05 06:37:41;;;;;;;16.37;12.23;;;;;;;24.36;77.62;98971.41;5052372;28;20154;-88
2022/06/05 06:40:07;;;;;;;16.47;12.10;;;;;;;22.03;77.66;98622.22;5051797;28;20166;-88
2022/06/05 06:42:33;;;;;;;17.38;11.50;;;;;;;24.80;74.38;98966.25;5051055;28;20160;-88
2022/06/05 06:44:59;;;;;;;13.85;11.45;;;;;;;27.11;72.94;99302.69;5053690;28;20166;-90
2022/06/05 06:47:24;;;;;;;13.95;10.77;;;;;;;24.17;71.90;98853.63;5032908;28;20281;-88
2022/06/05 06:49:50;;;;;;;15.70;11.05;;;;;;;23.70;70.01;98784.69;5050374;28;20172;-89
2022/06/05 06:52:16;;;;;;;13.30;11.48;;;;;;;23.19;70.17;98727.00;5050747;28;20174;-87
2022/06/05 06:54:41;;;;;;;13.57;11.13;;;;;;;23.61;69.35;98754.69;5050235;28;20167;-88
2022/06/05 06:57:09;;;;;;;14.75;11.10;;;;;;;23.82;67.85;98736.19;5049619;28;20188;-88
2022/06/05 06:59:35;;;;;;;14.63;11.20;;;;;;;25.74;65.12;98939.06;5048598;28;20168;-88
2022/06/05 07:02:00;;;;;;;12.52;9.95;;;;;;;25.26;64.04;98866.78;5049179;28;20174;-86
2022/06/05 07:04:26;;;;;;;17.00;10.77;;;;;;;24.50;65.52;98770.13;5050415;28;20170;-87
2022/06/05 07:06:52;;;;;;;18.08;10.77;;;;;;;25.19;65.39;98858.31;5050178;28;20193;-88
2022/06/05 07:09:18;;;;;;;15.52;11.50;;;;;;;24.79;64.76;98743.56;5049360;28;20172;-86
2022/06/05 07:11:44;;;;;;;16.88;11.50;;;;;;;25.94;65.65;98954.13;5054831;28;20183;-88
2022/06/05 07:14:10;;;;;;;12.57;11.27;;;;;;;25.11;65.77;98796.31;5069372;28;20157;-88
2022/06/05 07:16:37;;;;;;;15.18;11.60;;;;;;;27.71;66.51;99281.22;5068785;28;20165;-88
2022/06/05 07:19:03;;;;;;;15.38;11.93;;;;;;;24.19;66.53;98678.53;5073707;28;20240;-87
2022/06/05 07:24:05;;;;;;;15.07;11.27;;;;;;;24.57;66.02;98642.25;5074545;22;20281;-88
2022/06/05 07:26:32;;;;;;;14.88;11.05;;;;;;;26.16;64.71;98924.19;5052678;28;20172;-90
2022/06/05 07:28:59;;;;;;;14.20;11.85;;;;;;;28.15;65.57;99275.66;5032199;28;20191;-89
2022/06/05 07:31:27;;;;;;;13.38;11.20;;;;;;;24.68;65.18;98640.25;5048764;28;20191;-89
2022/06/05 07:33:53;;;;;;;12.65;10.50;;;;;;;27.52;64.63;99122.22;5048136;28;20173;-89
2022/06/05 07:36:20;;;;;;;16.02;10.50;;;;;;;25.35;64.04;98719.72;5048824;28;20228;-88
2022/06/05 07:38:47;;;;;;;13.23;10.70;;;;;;;27.23;65.39;99101.34;5030234;28;20187;-88
2022/06/05 07:41:29;;;;;;;15.73;10.38;;;;;;;25.74;64.90;98777.44;5048793;28;20169;-89
2022/06/05 07:43:58;;;;;;;15.02;10.70;;;;;;;26.75;63.73;98886.16;5049772;28;20169;-88
2022/06/05 07:46:25;;;;;;;16.67;10.70;;;;;;;29.68;62.02;99257.63;5049127;28;20176;-88
2022/06/05 07:48:50;;;;;;;22.75;11.00;;;;;;;27.50;59.81;98854.38;5048556;28;20203;-88
2022/06/05 07:54:28;;;;;;;13.23;10.55;;;;;;;26.75;61.33;98817.78;5046302;28;20178;-87
2022/06/05 07:56:59;;;;;;;12.45;10.20;;;;;;;29.05;61.25;99133.78;5047952;28;20161;-90
2022/06/05 07:59:30;;;;;;;14.73;9.80;;;;;;;30.29;59.52;99266.69;5050707;28;20607;-89
2022/06/05 08:02:03;;;;;;;12.23;10.20;;;;;;;30.02;60.04;99181.56;5051351;28;20210;-88
2022/06/05 08:04:29;;;;;;;17.08;11.10;;;;;;;30.37;59.51;99251.59;5030969;28;20193;-90
2022/06/05 08:06:57;;;;;;;16.65;10.80;;;;;;;30.78;57.99;99266.50;5045311;28;20239;-88
2022/06/05 08:09:23;;;;;;;12.50;10.32;;;;;;;30.51;59.06;99262.34;5029435;28;20232;-88
2022/06/05 08:11:49;;;;;;;12.00;10.18;;;;;;;29.24;58.66;99076.63;5051893;28;20160;-88
2022/06/05 08:14:14;;;;;;;16.08;10.50;;;;;;;30.22;57.64;99126.75;5054208;28;20180;-88
2022/06/05 08:16:43;;;;;;;14.88;10.63;;;;;;;30.64;58.15;99247.03;5053538;28;20183;-87
2022/06/05 08:19:15;;;;;;;12.85;10.73;;;;;;;30.18;58.20;99140.88;5032430;28;20180;-87
2022/06/05 08:21:41;;;;;;;14.05;10.50;;;;;;;30.77;57.58;99222.94;5029180;28;20630;-89
2022/06/05 08:24:07;;;;;;;13.68;10.23;;;;;;;30.29;59.30;99241.41;5047125;28;20301;-88
2022/06/05 08:26:33;;;;;;;12.63;10.45;;;;;;;30.88;57.79;99209.41;5051289;28;20173;-87
2022/06/05 08:28:59;;;;;;;13.90;10.18;;;;;;;30.01;58.27;99093.66;5042925;28;20176;-87
2022/06/05 08:31:25;;;;;;;14.63;10.80;;;;;;;30.14;57.27;99100.09;5045510;28;20176;-89
2022/06/05 08:33:50;;;;;;;15.32;11.30;;;;;;;30.75;56.78;99250.91;5024744;28;20203;-89
2022/06/05 08:36:16;;;;;;;12.50;9.93;;;;;;;31.01;56.38;99204.56;5044073;28;20224;-89
2022/06/05 08:41:28;;;;;;;13.93;10.77;;;;;;;31.52;55.89;99244.22;5047184;28;20652;-87
2022/06/05 08:44:10;;;;;;;13.80;10.35;;;;;;;31.46;53.48;99117.09;5049042;28;20252;-89
2022/06/05 08:46:38;;;;;;;15.32;10.75;;;;;;;31.76;54.45;99256.22;5049346;28;20170;-88
2022/06/05 08:49:10;;;;;;;14.57;10.13;;;;;;;31.18;56.03;99243.97;5045899;28;20181;-89
2022/06/05 08:52:00;;;;;;;16.08;10.18;;;;;;;31.53;55.23;99248.56;5044312;28;20186;-90
2022/06/05 08:54:51;;;;;;;15.65;10.68;;;;;;;32.39;52.68;99226.22;5046320;28;20182;-90
2022/06/05 08:57:33;;;;;;;16.17;10.55;;;;;;;32.99;50.93;99222.41;5045433;28;20231;-89
2022/06/05 08:59:59;;;;;;;13.38;10.02;;;;;;;33.23;51.14;99242.22;5017869;28;20170;-89
2022/06/05 09:02:44;;;;;;;14.40;11.27;;;;;;;32.26;51.85;99143.03;5017267;28;20178;-87
2022/06/05 09:05:30;;;;;;;14.63;10.55;;;;;;;33.28;49.60;99210.47;5037862;28;20589;-89
2022/06/05 09:07:59;;;;;;;10.90;9.50;;;;;;;31.51;51.11;99102.03;5035044;28;20268;-88
2022/06/05 09:10:37;;;;;;;12.02;10.10;;;;;;;32.30;52.00;99233.69;5036106;28;20162;-87
2022/06/05 09:13:08;;;;;;;11.65;9.63;;;;;;;32.65;50.43;99231.13;5039018;28;20193;-88
2022/06/05 09:15:39;;;;;;;11.80;9.30;;;;;;;32.28;49.04;99109.75;5035449;28;20198;-87
2022/06/05 09:18:15;;;;;;;16.00;11.20;;;;;;;33.17;47.68;99171.66;5033079;28;20689;-88
2022/06/05 09:20:45;;;;;;;11.20;9.23;;;;;;;33.69;46.68;99224.09;5037565;28;20631;-88
2022/06/05 09:23:25;;;;;;;11.63;9.10;;;;;;;32.74;48.47;99221.97;5051110;28;20275;-90
2022/06/05 09:26:06;;;;;;;17.65;11.60;;;;;;;32.87;47.24;99219.56;5056492;28;20193;-88
2022/06/05 09:28:53;;;;;;;12.00;9.00;;;;;;;33.49;44.84;99229.50;5057182;28;20232;-89
2022/06/05 09:31:49;;;;;;;13.23;8.25;;;;;;;33.87;42.15;99224.91;5058216;28;20175;-88
2022/06/05 09:34:22;;;;;;;11.18;8.40;;;;;;;33.07;43.58;99094.34;5057484;28;20169;-88
2022/06/05 09:37:08;;;;;;;12.63;9.38;;;;;;;32.06;45.46;99040.06;5057231;28;20219;-89
2022/06/05 09:39:38;;;;;;;19.42;12.27;;;;;;;30.75;44.14;98746.38;5037526;28;20253;-87
2022/06/05 09:42:57;;;;;;;16.92;10.18;;;;;;;34.37;42.11;99205.41;5036971;28;20590;-88
2022/06/05 09:45:53;;;;;;;10.73;8.65;;;;;;;34.18;40.30;99131.16;4939066;29;20181;-88
2022/06/05 09:48:30;;;;;;;11.25;8.70;;;;;;;31.67;40.68;98682.47;4938245;29;20221;-89
2022/06/05 09:50:56;;;;;;;28.00;20.58;;;;;;;33.45;42.16;99036.31;4937618;29;20173;-88
2022/06/05 09:53:27;;;;;;;17.35;13.35;;;;;;;33.66;42.54;99154.19;4938410;29;20182;-88
2022/06/05 09:56:13;;;;;;;31.00;22.70;;;;;;;33.41;41.49;99042.66;4936837;29;20201;-88
2022/06/05 09:58:55;;;;;;;11.38;9.90;;;;;;;34.12;41.01;99180.59;4937048;29;20660;-88
2022/06/05 10:01:30;;;;;;;13.32;8.70;;;;;;;34.93;40.38;99182.94;4936307;29;20256;-88
2022/06/05 10:04:00;;;;;;;14.02;11.00;;;;;;;33.65;41.38;99125.41;4939949;29;20188;-89
2022/06/05 10:06:58;;;;;;;27.75;15.70;;;;;;;33.69;41.78;99182.91;4938057;29;20193;-87
2022/06/05 10:09:27;;;;;;;17.48;11.65;;;;;;;33.25;40.58;99032.16;4901597;29;20202;-88
2022/06/05 10:11:55;;;;;;;29.40;20.40;;;;;;;34.30;41.04;99177.78;4899678;29;20544;-90
2022/06/05 10:14:30;;;;;;;23.23;17.00;;;;;;;33.44;39.92;98974.22;4901612;29;20182;-90
2022/06/05 10:17:07;;;;;;;15.13;10.32;;;;;;;34.55;40.73;99156.19;4899816;29;20182;-89
2022/06/05 10:20:20;;;;;;;11.57;8.05;;;;;;;34.20;39.47;99154.75;4918811;29;20204;-88
2022/06/05 10:22:48;;;;;;;10.50;7.90;;;;;;;33.98;40.77;99139.28;4957455;29;20228;-88
2022/06/05 10:25:36;;;;;;;9.32;7.75;;;;;;;32.82;41.13;98977.66;4960513;29;20203;-88
2022/06/05 10:28:18;;;;;;;10.00;7.47;;;;;;;33.75;39.62;99105.56;4956744;29;20196;-88
2022/06/05 10:31:19;;;;;;;7.72;6.90;;;;;;;30.67;41.36;98695.41;4958664;28;20208;-88
2022/06/05 10:33:53;;;;;;;8.85;7.00;;;;;;;33.27;41.54;99134.44;4942606;29;20204;-89
2022/06/05 10:36:55;;;;;;;13.02;8.93;;;;;;;33.68;41.30;99147.06;4959377;29;20181;-88
2022/06/05 10:39:27;;;;;;;24.65;17.30;;;;;;;34.19;39.85;99138.13;4958621;29;20204;-89
2022/06/05 10:41:53;;;;;;;20.40;13.13;;;;;;;34.03;39.98;99136.41;4960570;29;20184;-91
2022/06/05 10:44:47;;;;;;;10.65;7.30;;;;;;;31.95;39.86;98821.47;4958801;28;20194;-89
2022/06/05 10:47:25;;;;;;;12.15;8.25;;;;;;;33.52;40.47;99033.25;5025065;28;20205;-90
2022/06/05 10:50:17;;;;;;;24.85;18.67;;;;;;;34.50;38.59;99125.84;5038319;28;20174;-85
2022/06/05 10:53:04;;;;;;;12.18;10.88;;;;;;;34.33;38.94;99125.03;5019522;28;20174;-89
2022/06/05 10:55:59;;;;;;;18.05;10.27;;;;;;;34.39;38.37;99122.03;5020135;28;20175;-88
2022/06/05 10:58:38;;;;;;;32.90;23.13;;;;;;;33.53;38.53;98919.44;5017146;28;20666;-88
2022/06/05 11:01:12;;;;;;;62.47;40.70;;;;;;;34.71;37.92;99119.34;5026490;28;20209;-88
2022/06/05 11:04:04;;;;;;;12.55;9.63;;;;;;;34.48;38.75;99117.19;5034572;28;20174;-88
2022/06/05 11:06:42;;;;;;;10.13;8.07;;;;;;;34.03;39.52;99058.44;5017621;28;20171;-88
2022/06/05 11:09:32;;;;;;;15.20;10.93;;;;;;;34.80;37.57;99106.50;5017918;28;21071;-91
2022/06/05 11:15:47;;;;;;;16.20;8.65;;;;;;;34.58;37.47;99107.88;5018569;28;20697;-90
2022/06/05 11:18:29;;;;;;;14.18;9.13;;;;;;;34.27;37.76;99098.25;5017526;28;20635;-88
2022/06/05 11:21:01;;;;;;;38.20;24.25;;;;;;;32.74;38.55;98903.78;5018067;28;20177;-88
2022/06/05 11:23:30;;;;;;;11.60;7.90;;;;;;;32.99;37.22;98863.00;5017173;28;20222;-88
2022/06/05 11:26:20;;;;;;;9.98;6.90;;;;;;;34.25;37.13;99089.59;5017797;28;20182;-90
2022/06/05 11:28:52;;;;;;;9.68;6.32;;;;;;;34.36;36.74;99098.53;5017226;28;20198;-88
2022/06/05 11:31:48;;;;;;;9.23;6.97;;;;;;;34.86;37.33;99100.03;4999124;28;20206;-89
2022/06/05 11:34:43;;;;;;;10.82;6.93;;;;;;;34.84;37.62;99072.94;5016479;28;20252;-88
2022/06/05 11:37:15;;;;;;;9.38;6.40;;;;;;;34.55;37.64;99089.59;5022396;28;20171;-89
2022/06/05 11:40:10;;;;;;;10.38;7.07;;;;;;;34.64;36.64;99010.19;5020446;28;20174;-88
2022/06/05 11:42:46;;;;;;;12.52;7.68;;;;;;;35.75;34.71;99096.25;5021295;28;20178;-89
2022/06/05 11:45:30;;;;;;;10.07;6.60;;;;;;;36.26;33.48;99103.44;5034853;28;20177;-87
2022/06/05 11:48:06;;;;;;;11.52;7.53;;;;;;;35.65;34.64;99005.59;5043047;28;20204;-89
2022/06/05 11:50:45;;;;;;;9.32;7.03;;;;;;;35.30;32.74;98832.25;5041980;28;20704;-89
2022/06/05 11:53:39;;;;;;;7.93;6.35;;;;;;;36.10;31.45;98839.13;5020531;28;20265;-90
2022/06/05 11:56:04;;;;;;;8.25;7.45;;;;;;;37.00;32.20;99092.34;5018577;28;20174;-88
2022/06/05 11:58:41;;;;;;;7.93;5.57;;;;;;;36.08;31.95;98917.50;5023264;28;20237;-86